logo
App data

Attempt[42]

Challenging first person puzzle platformer.
Store | Hub | SteamDB
Developer: ThinkOfGames Publisher: ThinkOfGames
Genre: Action, Casual, Indie
Languages: English
Tags: Casual (46), Indie (33), Puzzle (25), Action (23), Puzzle-Platformer (21), Relaxing (11), Singleplayer (11), 3D Platformer (10)
Category: Single-player, Steam Achievements, Steam Trading Cards
Release date: Dec 8, 2016
Price: $2.99
Old userscore: 46% Owners: 50,000 .. 100,000
Followers: 114
Peak concurrent players yesterday: 1
YouTube stats: 110 views and 5 comments for top 50 videos uploaded last week, 2 new videos uploaded yesterday.
Playtime total: 04:18 (average) 05:02 (median)

Steam Spy is still in beta, so expect major bugs.

Owners data:

Access restricted.

This feature is only available to users with special access rights. Sorry.

If you want to proceed, you need to register or log in first and then back Steam Spy on Patreon. Look for Indie or Pro pledge.

Don't forget to use the same email as on Steam Spy!

Audience in 2 weeks:

Access restricted.

This feature is only available to users with special access rights. Sorry.

If you want to proceed, you need to register or log in first and then back Steam Spy on Patreon. Look for Indie or Pro pledge.

Don't forget to use the same email as on Steam Spy!

Peak daily concurrent players:

CCU data courtesy of SteamDB. Used with permission.

Hourly concurrent players:

Followers over time

Access restricted.

This feature is only available to users with special access rights. Sorry.

If you want to proceed, you need to register or log in first and then back Steam Spy on Patreon. Look for Indie or Pro pledge.

Don't forget to use the same email as on Steam Spy!

Views for top 50 videos on YouTube for this game:

Games similar to this one:

# Game Release date
Price
Score rank
(Userscore / Metascore)
Owners
Players
Playtime (Median)
1 Night Blights Apr 15, 2016 $6.99N/A (N/A)0 .. 20,0000%00:00 (00:00)
2 Gigachess Dec 15, 2015 $0.99N/A (N/A)0 .. 20,0000%00:00 (00:00)
3 Caravanserail Feb 26, 2016 $2.99N/A (N/A)0 .. 20,0000%00:00 (00:00)
4 Goodnight Butcher Dec 18, 2015 $1.99N/A (N/A)0 .. 20,0000%00:00 (00:00)
5 Mind Games Mar 4, 2016 $2.99N/A (N/A)20,000 .. 50,0000%00:00 (00:00)
6 White Mirror Jan 26, 2016 $4.99N/A (N/A)50,000 .. 100,0000%00:00 (00:00)
7 Airstrike HD Mar 23, 2016 $1.99N/A (N/A)200,000 .. 500,0000%00:00 (00:00)
8 Iron Sea Defenders Sep 9, 2016 $4.99N/A (N/A)20,000 .. 50,0000%00:00 (00:00)
9 Project Starship Apr 5, 2016 $2.99N/A (N/A)0 .. 20,0000%00:00 (00:00)
10 Plight of the Zombie Feb 22, 2016 $2.99N/A (N/A)0 .. 20,0000%00:00 (00:00)
11 Forgotten, Not Lost - A Kinetic Novel Apr 2, 2016 $1.99N/A (N/A)20,000 .. 50,0000%00:00 (00:00)
12 Moonlight Feb 5, 2016 $1.99N/A (N/A)0 .. 20,0000%00:00 (00:00)
13 Melting Hearts: Our Love Will Grow 2 Apr 29, 2016 N/AN/A (N/A)20,000 .. 50,0000%00:00 (00:00)
14 Until I Have You Apr 4, 2016 $13.99N/A (N/A/69%)20,000 .. 50,0000%00:00 (00:00)
15 BalanCity Sep 21, 2016 $7.99N/A (N/A)100,000 .. 200,0000%00:00 (00:00)
16 Pointless Feb 22, 2016 FreeN/A (N/A)0 .. 20,0000%00:00 (00:00)
17 Yrminsul Mar 2, 2016 $9.99N/A (N/A)0 .. 20,0000%00:00 (00:00)
18 Lobotomy Corporation | Monster Management Simulation Apr 9, 2018 $24.99N/A (N/A)200,000 .. 500,00010%01:55 (00:38)
19 BomberZone May 27, 2016 $0.99N/A (N/A)20,000 .. 50,0000%00:00 (00:00)
20 Magic Box Jan 19, 2017 $0.99N/A (N/A)100,000 .. 200,0000%00:00 (00:00)
21 Autumn Sep 23, 2014 $2.99N/A (N/A)50,000 .. 100,0000%00:00 (00:00)
22 Impossible Quest Jun 3, 2016 $1.99N/A (N/A)20,000 .. 50,0000%00:00 (00:00)
23 Reset 1-1 Aug 30, 2016 $1.99N/A (N/A)200,000 .. 500,0000%00:00 (00:00)
24 Security Hole Sep 28, 2016 $9.99N/A (N/A)0 .. 20,0000%00:00 (00:00)
25 Crash Wheels Dec 20, 2018 $4.99N/A (N/A)50,000 .. 100,0000%00:00 (00:00)
26 Space Beret Oct 25, 2016 $0.99N/A (N/A)200,000 .. 500,0000%00:00 (00:00)
27 Neon Prism Nov 18, 2016 $10.99N/A (N/A)50,000 .. 100,0000%00:00 (00:00)
28 Annie Amber Jun 17, 2016 $2.99N/A (N/A)0 .. 20,0000%00:00 (00:00)
29 Mayhem Intergalactic Jul 4, 2007 $9.99N/A (N/A)0 .. 20,0000%00:00 (00:00)
30 Viking Brothers Apr 23, 2014 $9.99N/A (N/A)0 .. 20,0000%00:00 (00:00)
31 Mevo and The Grooveriders Mar 19, 2009 N/AN/A (N/A/72%)0 .. 20,0000%00:00 (00:00)
32 Ionball 2: Ionstorm Jun 6, 2014 $4.99N/A (N/A/70%)200,000 .. 500,0000%00:00 (00:00)
33 Everyday Genius: SquareLogic Oct 9, 2009 $4.99N/A (N/A)0 .. 20,0000%00:00 (00:00)
34 Automation - The Car Company Tycoon Game Mar 12, 2015 $29.99N/A (N/A)200,000 .. 500,00014.29%00:08 (00:02)
35 Ancients of Ooga May 20, 2011 $9.99N/A (N/A)20,000 .. 50,0000%00:00 (00:00)
36 CAPSULE Feb 14, 2012 $4.99N/A (N/A)0 .. 20,0000%00:00 (00:00)
37 Divide By Sheep Jul 2, 2015 $4.99N/A (N/A/83%)100,000 .. 200,0000.55%01:14 (00:24)
38 Cute Things Dying Violently Sep 2, 2015 $2.99N/A (N/A)0 .. 20,0000%00:00 (00:00)
39 MXGP - The Official Motocross Videogame Mar 28, 2014 $1.99N/A (N/A)100,000 .. 200,0000%00:00 (00:00)
40 Metrocide Oct 20, 2014 $12.99N/A (N/A/68%)50,000 .. 100,0000%00:00 (00:00)
41 Particulars Nov 19, 2014 $5.99N/A (N/A/74%)0 .. 20,0000%00:00 (00:00)
42 Blob From Space Jul 4, 2020 $1.99N/A (N/A)20,000 .. 50,0000%00:00 (00:00)
43 Paranormal State: Poison Spring Nov 26, 2013 $9.99N/A (N/A)50,000 .. 100,0000%00:00 (00:00)
44 Quantum Rush Champions Dec 4, 2014 $2.99N/A (N/A)20,000 .. 50,0000%00:00 (00:00)
45 Robot Rescue Revolution Jul 11, 2014 $4.99N/A (N/A)0 .. 20,0000%00:00 (00:00)
46 Crashed Lander Jun 17, 2014 $4.99N/A (N/A)0 .. 20,0000%00:00 (00:00)
47 Cosmonautica Jul 31, 2015 $9.99N/A (N/A)100,000 .. 200,0000%00:00 (00:00)
48 Pixel Survivors May 5, 2016 $0.99N/A (N/A)50,000 .. 100,0000%00:00 (00:00)
49 Laserlife Sep 22, 2015 $9.99N/A (N/A)20,000 .. 50,0000%00:00 (00:00)
50 Crash Drive 2 May 28, 2015 $4.99N/A (N/A)100,000 .. 200,0000%00:00 (00:00)
51 1953: NATO vs Warsaw Pact Nov 11, 2014 $1.99N/A (N/A)0 .. 20,0000%00:00 (00:00)
52 Pixel Puzzles 2: Birds Feb 20, 2015 $4.99N/A (N/A)20,000 .. 50,0000%00:00 (00:00)
53 Alchemy Mysteries: Prague Legends Dec 22, 2014 $1.99N/A (N/A)100,000 .. 200,0000%00:00 (00:00)
54 Stay Alight Mar 2, 2015 $3.99N/A (N/A)50,000 .. 100,0000%00:00 (00:00)
55 Cheesecake Cool Conrad Oct 8, 2014 $0.99N/A (N/A)0 .. 20,0000%00:00 (00:00)
56 The Way We All Go Mar 24, 2015 $5.99N/A (N/A)0 .. 20,0000%00:00 (00:00)
57 Crab Cakes Rescue Nov 14, 2014 $6.99N/A (N/A)20,000 .. 50,0000%00:00 (00:00)
58 Unium Feb 3, 2015 $1.99N/A (N/A)0 .. 20,0000%00:00 (00:00)
59 Way to Go! Jun 8, 2015 $4.99N/A (N/A)0 .. 20,0000%00:00 (00:00)
60 Egg Returns Home May 5, 2015 $0.99N/A (N/A)20,000 .. 50,0000%00:00 (00:00)
61 Marble Duel: Sphere-Matching Tactical Fantasy Nov 12, 2015 $14.99N/A (N/A)50,000 .. 100,0000%00:00 (00:00)
62 Meadowland Oct 22, 2014 $0.79N/A (N/A)0 .. 20,0000%00:00 (00:00)
63 Collisions Jul 28, 2015 $3.99N/A (N/A)20,000 .. 50,0000%00:00 (00:00)
64 Koala Kids Jun 22, 2015 $1.99N/A (N/A)20,000 .. 50,0000%00:00 (00:00)
65 The Deletion Jul 30, 2015 $1.99N/A (N/A)20,000 .. 50,0000%00:00 (00:00)
66 Star Chronicles: Delta Quadrant Jul 7, 2015 $0.99N/A (N/A)200,000 .. 500,0000%00:00 (00:00)
67 Evolution Jun 6, 2016 FreeN/A (N/A)20,000 .. 50,0000%00:00 (00:00)
68 Guardians of Victoria Apr 29, 2016 $1.99N/A (N/A)100,000 .. 200,0000%00:00 (00:00)
69 Reigning Cats Aug 28, 2015 $1.99N/A (N/A)0 .. 20,0000%00:00 (00:00)
70 Sentinel 4: Dark Star Aug 13, 2015 $6.99N/A (N/A)0 .. 20,0000%00:00 (00:00)
71 Ace Of Words May 13, 2016 $4.99N/A (N/A)100,000 .. 200,0000%00:00 (00:00)
72 Alpha Runner Sep 2, 2015 $0.99N/A (N/A)100,000 .. 200,0000%00:00 (00:00)
73 Anode Oct 5, 2015 $3.99N/A (N/A)20,000 .. 50,0000%00:00 (00:00)
74 In Between Aug 21, 2015 $11.99N/A (N/A/68%)50,000 .. 100,0000%00:00 (00:00)
75 Star Sky Oct 23, 2015 $1.59N/A (N/A)0 .. 20,0000%00:00 (00:00)
76 Robot vs Birds Zombies Jun 1, 2013 $0.99N/A (N/A)100,000 .. 200,0000%00:00 (00:00)
77 The Last NightMary - A Lenda do Cabeça de Cuia Nov 2, 2015 $3.99N/A (N/A)50,000 .. 100,0000%00:00 (00:00)
78 Tyler Jan 14, 2016 $2.99N/A (N/A)0 .. 20,0000%00:00 (00:00)
79 Space Drifters 2D Mar 28, 2016 $0.99N/A (N/A)20,000 .. 50,0000%00:00 (00:00)

Tags over time:

Access restricted.

This feature is only available to users with special access rights. Sorry.

If you want to proceed, you need to register or log in first and then back Steam Spy on Patreon. Look for Indie or Pro pledge.

Don't forget to use the same email as on Steam Spy!

Owners of this game also own:

Access restricted.

This feature is only available to users with special access rights. Sorry.

If you want to proceed, you need to register or log in first and then back Steam Spy on Patreon. Look for Indie or Pro pledge.

Don't forget to use the same email as on Steam Spy!

Playtime distribution:

Access restricted.

This feature is only available to users with special access rights. Sorry.

If you want to proceed, you need to register or log in first and then back Steam Spy on Patreon. Look for Indie or Pro pledge.

Don't forget to use the same email as on Steam Spy!

Playtime (2 weeks):

Access restricted.

This feature is only available to users with special access rights. Sorry.

If you want to proceed, you need to register or log in first and then back Steam Spy on Patreon. Look for Indie or Pro pledge.

Don't forget to use the same email as on Steam Spy!

User reviews:

Login required.

Please register or log in to see this information.